Margaret — WDC3267 — position and weather

sailwx.info

Track history (hours):
 
Tides and Currents Weather Stations Pressure Air Temp Water Temp Dewpoint Dewpoint Depression Visibility Wind Speed Wind Dir Waves Ship Positions

Margaret

Owner: Cooper Marine & Timberlands Corporation, Mobile, AL. More information available from US FCC via Universal Licensing System and Coast Guard Vessel Documentation Center.

Last reported at 2014-Oct-30 00:21 UTC. Time now 2014-Oct-30 14:33 UTC.
Position N 30°27' W 086°10'.

; draft 9 m.

Type: Towing. MMSI: 367004940.

Date/timePositionNaut miles runAvg speedWind from/ knotsBaromVisibWave heightAir tempDewpointWater temp
2014-Oct-30 00:21N 30°27' W 086°10'2 2.0
2014-Oct-29 23:33N 30°26' W 086°12'4 4.0
2014-Oct-29 22:33N 30°27' W 086°17'6 5.8
2014-Oct-29 21:33N 30°26' W 086°23'6 5.6
2014-Oct-29 20:33N 30°26' W 086°30'14 4.7
2014-Oct-29 17:33N 30°24' W 086°46'5 5.4
2014-Oct-29 16:33N 30°24' W 086°52'  
2014-Oct-26 16:16N 29°60' W 089°59'2 2.9
2014-Oct-26 15:30N 29°59' W 090°01'2 0.6
2014-Oct-26 12:17N 29°57' W 090°02'1 0.6
2014-Oct-26 11:11N 29°57' W 090°02'0 0.0
2014-Oct-26 09:30N 29°57' W 090°02'0 0.0
2014-Oct-26 03:19N 29°57' W 090°02'0 0.0
2014-Oct-26 02:29N 29°57' W 090°02'0 0.0
2014-Oct-26 01:12N 29°57' W 090°02'0 0.0
2014-Oct-26 00:27N 29°57' W 090°02'0 0.0
2014-Oct-25 23:28N 29°57' W 090°02'0 0.0
2014-Oct-25 22:32N 29°57' W 090°02'0 0.0
2014-Oct-25 21:31N 29°57' W 090°02'0 0.0
2014-Oct-25 20:33N 29°57' W 090°02'0 0.0
2014-Oct-25 19:33N 29°57' W 090°02'0 0.0
2014-Oct-25 18:33N 29°57' W 090°02'0 0.0
2014-Oct-25 17:33N 29°57' W 090°02'0 0.0
2014-Oct-25 16:32N 29°57' W 090°02'0 0.0
2014-Oct-25 15:33N 29°57' W 090°02'0 0.0
2014-Oct-25 14:33N 29°57' W 090°02'0 0.0
2014-Oct-25 13:33N 29°57' W 090°02'0 0.0
2014-Oct-25 12:31N 29°57' W 090°02'0 0.0
2014-Oct-25 11:32N 29°57' W 090°02'0 0.0
2014-Oct-25 10:33N 29°57' W 090°02'0 0.0
2014-Oct-25 06:12N 29°57' W 090°02'0 0.0
2014-Oct-25 03:27N 29°57' W 090°02'0 0.0
2014-Oct-25 02:29N 29°57' W 090°02'0 0.0
2014-Oct-25 01:31N 29°57' W 090°02'0 0.0
2014-Oct-25 00:14N 29°57' W 090°02'0 0.0
2014-Oct-24 23:05N 29°57' W 090°02'0 0.0
2014-Oct-24 22:21N 29°57' W 090°02'0 0.0
2014-Oct-24 21:28N 29°57' W 090°02'0 0.2
2014-Oct-24 19:24N 29°57' W 090°02'2 1.8
2014-Oct-24 18:24N 29°56' W 090°03'4 1.8
2014-Oct-24 16:18N 29°54' W 090°07'1 1.2
2014-Oct-24 15:27N 29°55' W 090°08'9 4.8
2014-Oct-24 13:32N 29°57' W 090°19'  
Track history (hours):
 
Tides and Currents Weather Stations Pressure Air Temp Water Temp Dewpoint Dewpoint Depression Visibility Wind Speed Wind Dir Waves Ship Positions

Margaret

Owner: Cooper Marine & Timberlands Corporation, Mobile, AL. More information available from US FCC via Universal Licensing System and Coast Guard Vessel Documentation Center.

Last reported at 2014-Oct-30 00:21 UTC. Time now 2014-Oct-30 14:33 UTC.
Position N 30°27' W 086°10'.

; draft 9 m.

Type: Towing. MMSI: 367004940.

Date/timePositionNaut miles runAvg speedWind from/ knotsBaromVisibWave heightAir tempDewpointWater temp
2014-Oct-30 00:21N 30°27' W 086°10'2 2.0
2014-Oct-29 23:33N 30°26' W 086°12'4 4.0
2014-Oct-29 22:33N 30°27' W 086°17'6 5.8
2014-Oct-29 21:33N 30°26' W 086°23'6 5.6
2014-Oct-29 20:33N 30°26' W 086°30'14 4.7
2014-Oct-29 17:33N 30°24' W 086°46'5 5.4
2014-Oct-29 16:33N 30°24' W 086°52'  
2014-Oct-26 16:16N 29°60' W 089°59'2 2.9
2014-Oct-26 15:30N 29°59' W 090°01'2 0.6
2014-Oct-26 12:17N 29°57' W 090°02'1 0.6
2014-Oct-26 11:11N 29°57' W 090°02'0 0.0
2014-Oct-26 09:30N 29°57' W 090°02'0 0.0
2014-Oct-26 03:19N 29°57' W 090°02'0 0.0
2014-Oct-26 02:29N 29°57' W 090°02'0 0.0
2014-Oct-26 01:12N 29°57' W 090°02'0 0.0
2014-Oct-26 00:27N 29°57' W 090°02'0 0.0
2014-Oct-25 23:28N 29°57' W 090°02'0 0.0
2014-Oct-25 22:32N 29°57' W 090°02'0 0.0
2014-Oct-25 21:31N 29°57' W 090°02'0 0.0
2014-Oct-25 20:33N 29°57' W 090°02'0 0.0
2014-Oct-25 19:33N 29°57' W 090°02'0 0.0
2014-Oct-25 18:33N 29°57' W 090°02'0 0.0
2014-Oct-25 17:33N 29°57' W 090°02'0 0.0
2014-Oct-25 16:32N 29°57' W 090°02'0 0.0
2014-Oct-25 15:33N 29°57' W 090°02'0 0.0
2014-Oct-25 14:33N 29°57' W 090°02'0 0.0
2014-Oct-25 13:33N 29°57' W 090°02'0 0.0
2014-Oct-25 12:31N 29°57' W 090°02'0 0.0
2014-Oct-25 11:32N 29°57' W 090°02'0 0.0
2014-Oct-25 10:33N 29°57' W 090°02'0 0.0
2014-Oct-25 06:12N 29°57' W 090°02'0 0.0
2014-Oct-25 03:27N 29°57' W 090°02'0 0.0
2014-Oct-25 02:29N 29°57' W 090°02'0 0.0
2014-Oct-25 01:31N 29°57' W 090°02'0 0.0
2014-Oct-25 00:14N 29°57' W 090°02'0 0.0
2014-Oct-24 23:05N 29°57' W 090°02'0 0.0
2014-Oct-24 22:21N 29°57' W 090°02'0 0.0
2014-Oct-24 21:28N 29°57' W 090°02'0 0.2
2014-Oct-24 19:24N 29°57' W 090°02'2 1.8
2014-Oct-24 18:24N 29°56' W 090°03'4 1.8
2014-Oct-24 16:18N 29°54' W 090°07'1 1.2
2014-Oct-24 15:27N 29°55' W 090°08'9 4.8
2014-Oct-24 13:32N 29°57' W 090°19'  

Dump ship's entire track history